Time;durP1;ratioP1;P1;durP2;ratioP2;P2;SDS_P1;SDS_P2;PMS_P1;PMS_P2;Temp;Humidity;BMP_temperature;BMP_pressure;BME280_temperature;BME280_humidity;BME280_pressure;Samples;Min_cycle;Max_cycle;Signal;HPM_P1;HPM_P2
2022/04/26 03:36:10;;;;;;;;;;;7.90;99.90;;;;;;4967599;28;20224;-89
2022/04/26 03:38:57;;;;;;;;;;;7.90;99.90;;;;;;4975035;28;20289;-90
2022/04/26 03:41:44;;;;;;;;;;;7.80;99.90;;;;;;4986447;28;20260;-89
2022/04/26 03:44:31;;;;;;;;;;;7.80;99.90;;;;;;4975523;28;20267;-87
2022/04/26 03:47:18;;;;;;;;;;;7.80;99.90;;;;;;4974768;28;19936;-88
2022/04/26 03:50:12;;;;;;;;;;;7.70;99.90;;;;;;4976052;28;20287;-89
2022/04/26 03:53:01;;;;;;;;;;;7.80;99.90;;;;;;4987938;28;20005;-90
2022/04/26 03:55:51;;;;;;;;;;;7.90;99.90;;;;;;4981285;28;19933;-88
2022/04/26 03:58:38;;;;;;;;;;;7.90;99.90;;;;;;4955595;28;19926;-86
2022/04/26 04:01:25;;;;;;;;;;;7.90;99.90;;;;;;4974686;28;19941;-88
2022/04/26 04:04:12;;;;;;;;;;;7.90;99.90;;;;;;4982702;28;19960;-89
2022/04/26 04:07:00;;;;;;;;;;;8.00;99.90;;;;;;4987982;28;19930;-89
2022/04/26 04:09:52;;;;;;;;;;;8.00;99.90;;;;;;4976234;28;19926;-89
2022/04/26 04:12:39;;;;;;;;;;;7.90;99.90;;;;;;4974836;28;19922;-89
2022/04/26 04:15:29;;;;;;;;;;;7.90;99.90;;;;;;4971983;28;19933;-89
2022/04/26 04:21:26;;;;;;;;;;;7.80;99.90;;;;;;4982514;28;19933;-88
2022/04/26 04:24:16;;;;;;;;;;;7.80;99.90;;;;;;4979953;28;19929;-87
2022/04/26 04:27:04;;;;;;;;;;;7.80;99.90;;;;;;4980962;28;20328;-87
2022/04/26 04:29:51;;;;;;;;;;;7.80;99.90;;;;;;4980156;28;19929;-89
2022/04/26 04:32:39;;;;;;;;;;;7.80;99.90;;;;;;4965890;28;19922;-90
2022/04/26 04:41:59;;;;;;;;;;;7.70;99.90;;;;;;6005206;23;20035;-87
2022/04/26 05:02:47;;;;;;;;;;;7.70;99.90;;;;;;5816597;23;20343;-86
2022/04/26 05:05:37;;;;;;;;;;;7.70;99.90;;;;;;4944671;29;19971;-88
2022/04/26 05:08:27;;;;;;;;;;;7.80;99.90;;;;;;4958380;28;20446;-89
2022/04/26 05:11:15;;;;;;;;;;;7.80;99.90;;;;;;4959553;28;19922;-88
2022/04/26 05:14:03;;;;;;;;;;;7.80;99.90;;;;;;4958907;28;19933;-87
2022/04/26 05:17:18;;;;;;;;;;;7.80;99.90;;;;;;4959577;28;19914;-88
2022/04/26 05:20:05;;;;;;;;;;;7.70;99.90;;;;;;4959276;29;19922;-87
2022/04/26 05:25:59;;;;;;;;;;;7.60;99.90;;;;;;4956927;28;20253;-88
2022/04/26 05:28:48;;;;;;;;;;;7.60;99.90;;;;;;4951317;28;20225;-89
2022/04/26 05:31:35;;;;;;;;;;;7.60;99.90;;;;;;4957817;28;19933;-88
2022/04/26 05:34:23;;;;;;;;;;;7.70;99.90;;;;;;4957714;28;19922;-90
2022/04/26 05:37:12;;;;;;;;;;;7.60;99.90;;;;;;4956424;29;19922;-87
2022/04/26 05:40:02;;;;;;;;;;;7.60;99.90;;;;;;4965710;28;19926;-84
2022/04/26 05:42:49;;;;;;;;;;;7.60;99.90;;;;;;4950058;28;20244;-83
2022/04/26 05:45:36;;;;;;;;;;;7.70;99.90;;;;;;4965745;28;19922;-83
2022/04/26 05:48:31;;;;;;;;;;;7.70;99.90;;;;;;4964308;28;19922;-85
2022/04/26 05:51:18;;;;;;;;;;;7.70;99.90;;;;;;4952465;28;20339;-86
2022/04/26 05:54:07;;;;;;;;;;;7.70;99.90;;;;;;4961846;28;19942;-85
2022/04/26 05:57:09;;;;;;;;;;;7.80;99.90;;;;;;4944649;28;20040;-87
2022/04/26 05:59:56;;;;;;;;;;;7.70;99.90;;;;;;4945442;28;19945;-88
2022/04/26 06:02:53;;;;;;;;;;;7.80;99.90;;;;;;4948437;28;19969;-87
2022/04/26 06:05:44;;;;;;;;;;;7.80;99.90;;;;;;4955234;28;19977;-88
2022/04/26 06:08:32;;;;;;;;;;;7.90;99.90;;;;;;4959103;28;19937;-89
2022/04/26 06:11:20;;;;;;;;;;;7.80;99.90;;;;;;4965996;28;19922;-88
2022/04/26 06:14:09;;;;;;;;;;;7.80;99.90;;;;;;4961780;28;19934;-89
2022/04/26 06:16:56;;;;;;;;;;;7.90;99.90;;;;;;4958074;28;19922;-86
2022/04/26 06:19:44;;;;;;;;;;;7.90;99.90;;;;;;4958286;28;20328;-87
2022/04/26 06:22:34;;;;;;;;;;;8.00;99.90;;;;;;4960855;28;19926;-86
2022/04/26 06:25:24;;;;;;;;;;;8.00;99.90;;;;;;4954962;28;20475;-87
2022/04/26 06:28:11;;;;;;;;;;;8.00;99.90;;;;;;4955667;28;20264;-87
2022/04/26 06:30:58;;;;;;;;;;;8.10;99.90;;;;;;4962169;28;19922;-85
2022/04/26 06:33:45;;;;;;;;;;;8.10;99.90;;;;;;4968105;28;19923;-86
2022/04/26 06:36:33;;;;;;;;;;;8.10;99.90;;;;;;4945968;29;19929;-87
2022/04/26 06:39:20;;;;;;;;;;;8.10;99.90;;;;;;4970015;28;19922;-89
2022/04/26 06:42:08;;;;;;;;;;;8.20;99.90;;;;;;4981677;28;19922;-90
2022/04/26 06:44:56;;;;;;;;;;;8.30;99.90;;;;;;4978298;28;19922;-86
2022/04/26 06:47:44;;;;;;;;;;;8.50;99.90;;;;;;4970580;28;20096;-86
2022/04/26 06:50:34;;;;;;;;;;;8.50;99.90;;;;;;4968614;28;19926;-87
2022/04/26 06:53:24;;;;;;;;;;;8.60;99.90;;;;;;4977373;28;19937;-88
2022/04/26 06:56:12;;;;;;;;;;;8.70;99.90;;;;;;4954472;28;20790;-90
2022/04/26 06:58:59;;;;;;;;;;;8.80;99.90;;;;;;4957701;28;20328;-89
2022/04/26 07:01:52;;;;;;;;;;;8.90;99.90;;;;;;4956732;28;20455;-89
2022/04/26 07:05:14;;;;;;;;;;;8.90;99.90;;;;;;4958465;28;20001;-87
2022/04/26 07:08:01;;;;;;;;;;;9.00;99.90;;;;;;4955248;28;19927;-88
2022/04/26 07:10:50;;;;;;;;;;;9.00;99.90;;;;;;4959313;28;19941;-85
2022/04/26 07:13:39;;;;;;;;;;;9.10;99.90;;;;;;4964583;28;20030;-88
2022/04/26 07:16:32;;;;;;;;;;;9.30;99.90;;;;;;4959180;28;20009;-88
2022/04/26 07:19:22;;;;;;;;;;;9.60;99.90;;;;;;4959784;28;19922;-89
2022/04/26 07:22:09;;;;;;;;;;;9.70;99.90;;;;;;4959867;28;20332;-87
2022/04/26 07:24:57;;;;;;;;;;;9.90;99.90;;;;;;4961434;28;20293;-88
2022/04/26 07:27:45;;;;;;;;;;;10.20;99.90;;;;;;4954305;28;20093;-87
2022/04/26 07:30:35;;;;;;;;;;;10.40;99.90;;;;;;4956782;28;20260;-87
2022/04/26 07:36:31;;;;;;;;;;;10.40;99.90;;;;;;4950300;28;19973;-86
2022/04/26 07:39:20;;;;;;;;;;;10.40;99.90;;;;;;4965645;28;20001;-85
2022/04/26 07:42:10;;;;;;;;;;;10.90;99.90;;;;;;4961612;28;20272;-84
2022/04/26 07:45:03;;;;;;;;;;;10.80;99.90;;;;;;4968105;28;20284;-87
2022/04/26 07:47:52;;;;;;;;;;;10.50;99.90;;;;;;4966455;28;20327;-85
2022/04/26 07:50:39;;;;;;;;;;;10.50;99.90;;;;;;4949107;28;20005;-85
2022/04/26 07:53:29;;;;;;;;;;;10.50;99.90;;;;;;4963031;28;19934;-84
2022/04/26 07:56:16;;;;;;;;;;;10.80;99.90;;;;;;4969058;28;20326;-85
2022/04/26 07:59:04;;;;;;;;;;;10.90;99.90;;;;;;4974535;28;19985;-84
2022/04/26 08:01:51;;;;;;;;;;;10.80;99.90;;;;;;4959736;28;19922;-85
2022/04/26 08:04:41;;;;;;;;;;;10.80;99.90;;;;;;4959588;28;20394;-85
2022/04/26 08:07:33;;;;;;;;;;;10.80;99.90;;;;;;4959029;29;19927;-87
2022/04/26 08:10:21;;;;;;;;;;;10.70;99.90;;;;;;4971418;28;19946;-86
2022/04/26 08:13:18;;;;;;;;;;;10.60;99.90;;;;;;4960276;28;19945;-83
2022/04/26 08:16:07;;;;;;;;;;;10.50;99.90;;;;;;4971001;28;19923;-85
2022/04/26 08:19:17;;;;;;;;;;;10.70;99.90;;;;;;4973640;28;19937;-83
2022/04/26 08:22:19;;;;;;;;;;;10.80;99.90;;;;;;4968522;28;20030;-84
2022/04/26 08:28:12;;;;;;;;;;;11.20;99.90;;;;;;4967771;28;19922;-86
2022/04/26 08:31:00;;;;;;;;;;;11.30;99.90;;;;;;4967401;28;19933;-85
2022/04/26 08:33:51;;;;;;;;;;;11.60;99.90;;;;;;4955952;28;20054;-85
2022/04/26 08:36:43;;;;;;;;;;;11.80;99.90;;;;;;4963998;28;19933;-84
2022/04/26 08:39:31;;;;;;;;;;;12.00;99.90;;;;;;4943163;28;19969;-85
2022/04/26 08:42:53;;;;;;;;;;;12.20;99.90;;;;;;4954430;28;19945;-84
2022/04/26 08:45:41;;;;;;;;;;;12.30;99.90;;;;;;4926592;28;19930;-86
2022/04/26 08:51:38;;;;;;;;;;;12.10;99.90;;;;;;4960683;28;19927;-84
2022/04/26 08:54:26;;;;;;;;;;;11.90;99.90;;;;;;4952955;28;19922;-84
2022/04/26 08:57:13;;;;;;;;;;;11.80;99.90;;;;;;4967061;28;19922;-83
2022/04/26 09:00:02;;;;;;;;;;;11.50;99.90;;;;;;4948796;28;19941;-84
2022/04/26 09:03:03;;;;;;;;;;;11.20;99.90;;;;;;4953808;28;19930;-84
2022/04/26 09:06:04;;;;;;;;;;;11.20;99.90;;;;;;4942082;29;20338;-84
2022/04/26 09:09:04;;;;;;;;;;;11.40;99.90;;;;;;4953931;28;19933;-84
2022/04/26 09:11:58;;;;;;;;;;;11.60;99.90;;;;;;4956699;28;20411;-83
2022/04/26 09:14:50;;;;;;;;;;;12.70;99.90;;;;;;4957901;28;19933;-84
2022/04/26 09:17:38;;;;;;;;;;;14.00;99.90;;;;;;4960781;28;19926;-82
2022/04/26 09:20:31;;;;;;;;;;;14.70;99.90;;;;;;4956637;28;20360;-85
2022/04/26 09:23:28;;;;;;;;;;;15.30;99.90;;;;;;4955760;29;20017;-84
2022/04/26 09:26:17;;;;;;;;;;;16.20;99.90;;;;;;4952934;28;19937;-85
2022/04/26 09:29:09;;;;;;;;;;;16.80;97.30;;;;;;4958779;28;19933;-85
2022/04/26 09:32:03;;;;;;;;;;;17.70;91.60;;;;;;4961856;28;20114;-85
2022/04/26 09:34:51;;;;;;;;;;;17.20;78.00;;;;;;4958421;28;19930;-85
2022/04/26 09:37:43;;;;;;;;;;;17.00;83.00;;;;;;4959044;28;20040;-86
2022/04/26 09:40:37;;;;;;;;;;;17.70;83.70;;;;;;4959402;28;19937;-85
2022/04/26 09:43:29;;;;;;;;;;;17.50;80.20;;;;;;4954697;29;19937;-84
2022/04/26 09:46:16;;;;;;;;;;;16.20;85.80;;;;;;4953695;28;19949;-84
2022/04/26 09:49:05;;;;;;;;;;;16.00;82.90;;;;;;4959497;28;19989;-83
2022/04/26 09:52:13;;;;;;;;;;;16.10;80.60;;;;;;4955373;28;19926;-86
2022/04/26 09:55:01;;;;;;;;;;;15.40;84.00;;;;;;4948546;28;20332;-85
2022/04/26 09:57:49;;;;;;;;;;;15.10;82.70;;;;;;4954317;28;19926;-85
2022/04/26 10:00:39;;;;;;;;;;;14.70;84.40;;;;;;4955805;28;19923;-87
2022/04/26 10:03:31;;;;;;;;;;;14.20;81.20;;;;;;4951709;28;19927;-85
2022/04/26 10:06:22;;;;;;;;;;;13.70;81.50;;;;;;4956507;28;19930;-84
2022/04/26 10:09:10;;;;;;;;;;;13.80;84.40;;;;;;4956490;28;19926;-84
2022/04/26 10:11:59;;;;;;;;;;;14.20;85.40;;;;;;4947631;28;19933;-87
2022/04/26 10:14:48;;;;;;;;;;;15.10;81.30;;;;;;4961541;28;19926;-86
2022/04/26 10:17:36;;;;;;;;;;;15.20;78.10;;;;;;4959302;28;19937;-86
2022/04/26 10:20:40;;;;;;;;;;;15.50;76.70;;;;;;4953699;28;20032;-81
2022/04/26 10:23:28;;;;;;;;;;;15.90;76.10;;;;;;4960677;28;20023;-87
2022/04/26 10:26:27;;;;;;;;;;;17.40;72.50;;;;;;4951921;28;20068;-86
2022/04/26 10:29:22;;;;;;;;;;;17.20;70.40;;;;;;4957875;28;19932;-86
2022/04/26 10:32:11;;;;;;;;;;;18.00;69.90;;;;;;4952396;28;19950;-85
2022/04/26 10:35:18;;;;;;;;;;;18.70;68.50;;;;;;4965348;28;21387;-86
2022/04/26 10:38:11;;;;;;;;;;;19.20;66.20;;;;;;4951684;28;19946;-84
2022/04/26 10:41:07;;;;;;;;;;;18.70;66.60;;;;;;4956090;28;19937;-85
2022/04/26 10:44:14;;;;;;;;;;;19.00;64.90;;;;;;4954592;28;20064;-87
2022/04/26 10:47:02;;;;;;;;;;;20.20;60.30;;;;;;4952847;28;19965;-85
2022/04/26 10:49:50;;;;;;;;;;;20.10;57.00;;;;;;4956301;28;19923;-84
2022/04/26 10:52:47;;;;;;;;;;;19.40;55.70;;;;;;4948929;28;19934;-86
2022/04/26 10:55:37;;;;;;;;;;;18.60;60.40;;;;;;4952635;28;19931;-84
2022/04/26 10:58:25;;;;;;;;;;;18.40;59.40;;;;;;4959180;28;20390;-84
2022/04/26 11:01:13;;;;;;;;;;;18.50;59.90;;;;;;4958071;28;19976;-86
2022/04/26 11:04:02;;;;;;;;;;;17.80;57.90;;;;;;4954947;28;20252;-83
2022/04/26 11:06:50;;;;;;;;;;;16.80;58.60;;;;;;4958227;28;19945;-85
2022/04/26 11:09:50;;;;;;;;;;;16.10;61.10;;;;;;4958271;28;20355;-82
2022/04/26 11:12:40;;;;;;;;;;;14.80;64.20;;;;;;4963438;28;20252;-84
2022/04/26 11:15:29;;;;;;;;;;;14.50;69.20;;;;;;4959016;28;20439;-87
2022/04/26 11:18:22;;;;;;;;;;;16.00;59.10;;;;;;4957732;28;19922;-85
2022/04/26 11:21:12;;;;;;;;;;;15.60;60.00;;;;;;4961633;28;19933;-85
2022/04/26 11:30:33;;;;;;;;;;;15.20;59.20;;;;;;4963531;28;19922;-85
2022/04/26 11:33:25;;;;;;;;;;;16.30;65.80;;;;;;4945486;28;19926;-86
2022/04/26 11:36:17;;;;;;;;;;;17.60;58.70;;;;;;4947664;28;19921;-84
2022/04/26 11:39:06;;;;;;;;;;;17.60;57.10;;;;;;4955988;28;19938;-83
2022/04/26 11:42:00;;;;;;;;;;;16.80;54.60;;;;;;4964238;28;20001;-82
2022/04/26 11:45:06;;;;;;;;;;;17.00;54.00;;;;;;4961779;28;19927;-82
2022/04/26 11:47:54;;;;;;;;;;;16.50;56.00;;;;;;4955813;28;19981;-85
2022/04/26 11:50:44;;;;;;;;;;;16.80;60.50;;;;;;4956737;28;19922;-84
2022/04/26 11:53:36;;;;;;;;;;;17.40;57.10;;;;;;4947133;28;19933;-84
2022/04/26 11:56:31;;;;;;;;;;;17.60;54.60;;;;;;4966771;28;19926;-83
2022/04/26 11:59:22;;;;;;;;;;;17.20;55.80;;;;;;4944587;28;20305;-87
2022/04/26 12:02:12;;;;;;;;;;;16.80;55.30;;;;;;4956425;28;20288;-85
2022/04/26 12:05:03;;;;;;;;;;;15.90;55.10;;;;;;4957298;28;19929;-87
2022/04/26 12:07:51;;;;;;;;;;;15.40;57.30;;;;;;4956225;28;20092;-86
2022/04/26 12:10:39;;;;;;;;;;;15.10;59.00;;;;;;4962407;28;19921;-84
2022/04/26 12:13:30;;;;;;;;;;;14.90;60.10;;;;;;4966147;28;19976;-85
2022/04/26 12:16:19;;;;;;;;;;;14.10;68.00;;;;;;4944589;29;19933;-85
2022/04/26 12:19:07;;;;;;;;;;;12.80;81.00;;;;;;4958794;28;19933;-84
2022/04/26 12:21:58;;;;;;;;;;;12.60;88.00;;;;;;4959771;28;19923;-85
2022/04/26 12:24:46;;;;;;;;;;;12.10;90.50;;;;;;4961195;28;20044;-86
2022/04/26 12:27:35;;;;;;;;;;;12.20;93.80;;;;;;4943636;28;19926;-87
2022/04/26 12:30:27;;;;;;;;;;;12.20;93.30;;;;;;4961249;28;19922;-84
2022/04/26 12:33:27;;;;;;;;;;;11.80;95.30;;;;;;4955783;29;20005;-85
2022/04/26 12:36:19;;;;;;;;;;;11.80;99.90;;;;;;4959476;28;19930;-84
2022/04/26 12:39:08;;;;;;;;;;;12.40;95.60;;;;;;4963143;28;19922;-85
2022/04/26 12:42:02;;;;;;;;;;;12.80;94.90;;;;;;4956273;28;19998;-85
2022/04/26 12:45:07;;;;;;;;;;;13.20;97.70;;;;;;4952176;28;19954;-83
2022/04/26 12:51:29;;;;;;;;;;;14.50;99.90;;;;;;4951887;28;19926;-83
2022/04/26 12:54:18;;;;;;;;;;;14.60;99.90;;;;;;4963399;28;20400;-83
2022/04/26 12:57:13;;;;;;;;;;;14.20;99.90;;;;;;4960657;28;19934;-83
2022/04/26 13:00:03;;;;;;;;;;;13.60;99.90;;;;;;4974217;28;20336;-84
2022/04/26 13:02:53;;;;;;;;;;;12.70;99.90;;;;;;4961130;28;19926;-84
2022/04/26 13:05:50;;;;;;;;;;;12.10;99.90;;;;;;4946594;28;19957;-84
2022/04/26 13:08:40;;;;;;;;;;;11.60;99.90;;;;;;4964712;28;20024;-84
2022/04/26 13:11:29;;;;;;;;;;;11.30;99.90;;;;;;4962615;28;19930;-85
2022/04/26 13:14:20;;;;;;;;;;;11.30;99.90;;;;;;4974935;28;19922;-85
2022/04/26 13:17:30;;;;;;;;;;;11.40;99.90;;;;;;4972882;28;19978;-85
2022/04/26 13:20:19;;;;;;;;;;;12.10;99.90;;;;;;4959550;28;19926;-85
2022/04/26 13:23:09;;;;;;;;;;;13.10;99.90;;;;;;4975191;28;19910;-84
2022/04/26 13:25:58;;;;;;;;;;;14.60;99.90;;;;;;4983216;28;19933;-83
2022/04/26 13:28:54;;;;;;;;;;;15.00;99.90;;;;;;4954737;28;19951;-85
2022/04/26 13:31:47;;;;;;;;;;;15.30;99.90;;;;;;4974053;28;19923;-85
2022/04/26 13:34:37;;;;;;;;;;;16.40;99.90;;;;;;4972649;28;19926;-85
2022/04/26 13:37:33;;;;;;;;;;;16.60;96.90;;;;;;4967294;28;19929;-85
2022/04/26 13:40:24;;;;;;;;;;;16.00;96.50;;;;;;4958787;28;19933;-85
2022/04/26 13:43:19;;;;;;;;;;;15.40;96.60;;;;;;4949784;28;20863;-86
2022/04/26 13:46:36;;;;;;;;;;;15.20;97.90;;;;;;4955907;28;19922;-84
2022/04/26 13:49:25;;;;;;;;;;;16.10;84.20;;;;;;4946677;28;20257;-85
2022/04/26 13:52:14;;;;;;;;;;;16.50;79.30;;;;;;4953554;28;19964;-85
2022/04/26 13:55:03;;;;;;;;;;;16.40;75.50;;;;;;4955305;28;19922;-83
2022/04/26 13:57:52;;;;;;;;;;;16.00;75.20;;;;;;4955197;28;20668;-84
2022/04/26 14:00:41;;;;;;;;;;;16.70;73.10;;;;;;4959898;28;19922;-82
2022/04/26 14:03:31;;;;;;;;;;;16.10;70.30;;;;;;4959079;28;19922;-83
2022/04/26 14:06:21;;;;;;;;;;;15.40;74.70;;;;;;4954747;28;20307;-84
2022/04/26 14:09:09;;;;;;;;;;;15.00;78.70;;;;;;4957044;28;19922;-83
2022/04/26 14:11:58;;;;;;;;;;;14.50;75.10;;;;;;4954724;28;19934;-83
2022/04/26 14:24:10;;;;;;;;;;;16.10;72.70;;;;;;4961124;28;20008;-87
2022/04/26 14:26:59;;;;;;;;;;;17.30;67.10;;;;;;4956188;28;19930;-84
2022/04/26 14:29:48;;;;;;;;;;;15.90;65.70;;;;;;4952900;28;19945;-84
2022/04/26 14:32:38;;;;;;;;;;;16.10;69.20;;;;;;4953691;28;19926;-87
2022/04/26 14:35:29;;;;;;;;;;;17.60;63.80;;;;;;4955046;28;19981;-86
2022/04/26 14:38:19;;;;;;;;;;;19.00;55.50;;;;;;4963452;28;20248;-83
2022/04/26 14:41:08;;;;;;;;;;;18.50;55.60;;;;;;4947944;28;19930;-84
2022/04/26 14:43:56;;;;;;;;;;;18.80;54.90;;;;;;4956570;28;19934;-85
2022/04/26 14:46:43;;;;;;;;;;;19.30;54.50;;;;;;4949444;28;20325;-84
2022/04/26 14:49:34;;;;;;;;;;;18.40;54.90;;;;;;4954559;28;19922;-83
2022/04/26 14:52:22;;;;;;;;;;;17.50;56.30;;;;;;4956695;28;20348;-83
2022/04/26 14:55:16;;;;;;;;;;;16.70;57.10;;;;;;4964819;28;19929;-84
2022/04/26 14:58:06;;;;;;;;;;;16.60;59.20;;;;;;4956090;28;20016;-83
2022/04/26 15:00:55;;;;;;;;;;;15.70;62.00;;;;;;4951844;29;19981;-84
2022/04/26 15:03:44;;;;;;;;;;;15.30;64.90;;;;;;4958970;28;19937;-83
2022/04/26 15:06:32;;;;;;;;;;;14.60;67.10;;;;;;4954527;28;20014;-84
2022/04/26 15:18:43;;;;;;;;;;;13.70;72.10;;;;;;4944488;28;19938;-83
2022/04/26 15:21:31;;;;;;;;;;;13.30;72.00;;;;;;4960511;28;20383;-83
2022/04/26 15:24:18;;;;;;;;;;;12.90;75.20;;;;;;4952763;28;19922;-83
2022/04/26 15:27:08;;;;;;;;;;;12.80;77.10;;;;;;4947314;29;19927;-83
2022/04/26 15:29:55;;;;;;;;;;;12.70;76.10;;;;;;4943054;28;19922;-83
2022/04/26 15:32:46;;;;;;;;;;;12.50;78.00;;;;;;4957849;28;19923;-84
2022/04/26 15:35:35;;;;;;;;;;;12.30;80.80;;;;;;4964694;28;19922;-84
2022/04/26 15:38:22;;;;;;;;;;;12.20;82.10;;;;;;4951817;28;19949;-84
2022/04/26 15:41:11;;;;;;;;;;;12.20;84.60;;;;;;4959004;28;19982;-84
2022/04/26 15:44:00;;;;;;;;;;;12.60;83.80;;;;;;4959890;28;19926;-83
2022/04/26 15:47:02;;;;;;;;;;;13.60;81.40;;;;;;4964244;28;20371;-85
2022/04/26 15:49:50;;;;;;;;;;;14.80;76.00;;;;;;4956714;28;20329;-84
2022/04/26 15:52:39;;;;;;;;;;;14.70;71.80;;;;;;4952483;28;19922;-83
2022/04/26 15:55:28;;;;;;;;;;;14.00;75.00;;;;;;4958585;28;19931;-83
2022/04/26 15:58:17;;;;;;;;;;;13.30;77.20;;;;;;4957993;28;19953;-84
2022/04/26 16:01:15;;;;;;;;;;;12.70;89.70;;;;;;4955571;28;19929;-82
2022/04/26 16:04:04;;;;;;;;;;;12.80;92.50;;;;;;4957490;28;20216;-84
2022/04/26 16:06:52;;;;;;;;;;;13.30;92.70;;;;;;4956945;29;19937;-84
2022/04/26 16:22:04;;;;;;;;;;;13.10;91.00;;;;;;4961124;28;19930;-84
2022/04/26 16:24:51;;;;;;;;;;;13.00;93.40;;;;;;4958846;28;19936;-83
2022/04/26 16:27:42;;;;;;;;;;;13.10;92.50;;;;;;4962252;28;19930;-83
2022/04/26 16:30:31;;;;;;;;;;;13.50;93.80;;;;;;4951012;28;19922;-83
2022/04/26 16:33:18;;;;;;;;;;;13.80;91.40;;;;;;4957922;28;19922;-82
2022/04/26 16:36:11;;;;;;;;;;;13.50;88.80;;;;;;4957263;28;20352;-83
2022/04/26 16:38:58;;;;;;;;;;;13.30;88.90;;;;;;4947995;28;19934;-83
2022/04/26 16:41:45;;;;;;;;;;;13.20;85.80;;;;;;4964548;28;19941;-83
2022/04/26 16:44:33;;;;;;;;;;;13.00;86.00;;;;;;4958197;28;20216;-82
2022/04/26 16:47:24;;;;;;;;;;;12.70;86.20;;;;;;4968409;28;19922;-83
2022/04/26 16:50:16;;;;;;;;;;;12.50;90.00;;;;;;4954439;28;19933;-82
2022/04/26 16:53:07;;;;;;;;;;;12.40;89.50;;;;;;4962089;28;19922;-84
2022/04/26 16:55:56;;;;;;;;;;;12.10;92.00;;;;;;4947355;29;19922;-83
2022/04/26 16:58:43;;;;;;;;;;;11.70;95.50;;;;;;4964386;28;19931;-85
2022/04/26 17:01:31;;;;;;;;;;;11.60;96.90;;;;;;4960821;28;19930;-83
2022/04/26 17:04:21;;;;;;;;;;;11.50;99.90;;;;;;4963499;28;19922;-83
2022/04/26 17:07:08;;;;;;;;;;;11.40;99.90;;;;;;4955868;29;19923;-83
2022/04/26 17:09:56;;;;;;;;;;;11.30;99.90;;;;;;4950673;28;20348;-83
2022/04/26 17:12:44;;;;;;;;;;;11.20;99.90;;;;;;4943231;29;19966;-83
2022/04/26 17:15:31;;;;;;;;;;;11.10;99.90;;;;;;4965926;28;19937;-83
2022/04/26 17:18:19;;;;;;;;;;;11.00;99.90;;;;;;4956053;29;19982;-83
2022/04/26 17:21:08;;;;;;;;;;;10.90;99.90;;;;;;4961884;28;20005;-83
2022/04/26 17:23:56;;;;;;;;;;;10.70;99.90;;;;;;4954687;28;19930;-84
2022/04/26 17:26:44;;;;;;;;;;;10.50;99.90;;;;;;4957112;28;20028;-83
2022/04/26 17:29:31;;;;;;;;;;;10.40;99.90;;;;;;4961854;28;19926;-83
2022/04/26 17:32:22;;;;;;;;;;;10.40;99.90;;;;;;4964501;28;19922;-83
2022/04/26 17:35:11;;;;;;;;;;;10.30;99.90;;;;;;4939452;28;19923;-83
2022/04/26 17:37:59;;;;;;;;;;;10.10;99.90;;;;;;4958347;28;19922;-82
2022/04/26 17:40:47;;;;;;;;;;;9.90;99.90;;;;;;4958665;28;19945;-83
2022/04/26 17:43:35;;;;;;;;;;;9.80;99.90;;;;;;4962594;28;20288;-84
2022/04/26 17:46:22;;;;;;;;;;;9.70;99.90;;;;;;4940727;28;19937;-83
2022/04/26 17:49:10;;;;;;;;;;;9.50;99.90;;;;;;4957063;28;20366;-83
2022/04/26 17:51:57;;;;;;;;;;;9.40;99.90;;;;;;4953338;28;19926;-82
2022/04/26 17:57:51;;;;;;;;;;;9.20;99.90;;;;;;4957063;28;20009;-83
2022/04/26 18:00:39;;;;;;;;;;;9.00;99.90;;;;;;4962062;28;19922;-83
2022/04/26 18:03:27;;;;;;;;;;;8.90;99.90;;;;;;4962575;28;20021;-84
2022/04/26 18:06:20;;;;;;;;;;;8.90;99.90;;;;;;4965956;28;19926;-84
2022/04/26 18:09:08;;;;;;;;;;;8.90;99.90;;;;;;4955257;28;19937;-84
2022/04/26 18:11:56;;;;;;;;;;;8.90;99.90;;;;;;4961710;28;19922;-83
2022/04/26 18:14:47;;;;;;;;;;;8.90;99.90;;;;;;4950430;29;20084;-83
2022/04/26 18:17:35;;;;;;;;;;;8.90;99.90;;;;;;4959128;28;20367;-82
2022/04/26 18:20:26;;;;;;;;;;;8.80;99.90;;;;;;4959915;28;19930;-84
2022/04/26 18:23:15;;;;;;;;;;;8.80;99.90;;;;;;4958837;28;19922;-84
2022/04/26 18:26:14;;;;;;;;;;;8.70;99.90;;;;;;4943427;29;20012;-84
2022/04/26 18:29:03;;;;;;;;;;;8.70;99.90;;;;;;4955317;28;20372;-84
2022/04/26 18:31:55;;;;;;;;;;;8.80;99.90;;;;;;4957858;28;19937;-83
2022/04/26 18:34:43;;;;;;;;;;;8.80;99.90;;;;;;4966688;28;19930;-83
2022/04/26 18:37:36;;;;;;;;;;;8.80;99.90;;;;;;4967940;28;19940;-85
2022/04/26 18:40:58;;;;;;;;;;;8.60;99.90;;;;;;4969627;28;19984;-86
2022/04/26 18:43:59;;;;;;;;;;;8.50;99.90;;;;;;4967180;28;19922;-84
2022/04/26 18:46:47;;;;;;;;;;;8.40;99.90;;;;;;4968898;28;19931;-84
2022/04/26 18:49:36;;;;;;;;;;;8.30;99.90;;;;;;4976331;28;19927;-84
2022/04/26 18:52:23;;;;;;;;;;;8.30;99.90;;;;;;4970909;28;20301;-85
2022/04/26 18:55:11;;;;;;;;;;;8.10;99.90;;;;;;4965472;28;19929;-84
2022/04/26 18:57:59;;;;;;;;;;;8.10;99.90;;;;;;4963638;28;20394;-84
2022/04/26 19:00:52;;;;;;;;;;;8.00;99.90;;;;;;4966129;28;19993;-83
2022/04/26 19:03:41;;;;;;;;;;;7.90;99.90;;;;;;4957425;28;19926;-83
2022/04/26 19:06:29;;;;;;;;;;;7.80;99.90;;;;;;4956992;28;19957;-85
2022/04/26 19:09:21;;;;;;;;;;;7.70;99.90;;;;;;4955976;28;20018;-87
2022/04/26 19:12:15;;;;;;;;;;;7.50;99.90;;;;;;4960119;28;20309;-85
2022/04/26 19:15:03;;;;;;;;;;;7.50;99.90;;;;;;4952358;28;19926;-85
2022/04/26 19:17:54;;;;;;;;;;;7.40;99.90;;;;;;4960391;28;19945;-89
2022/04/26 19:20:43;;;;;;;;;;;7.30;99.90;;;;;;4957996;28;19934;-87
2022/04/26 19:23:34;;;;;;;;;;;7.20;99.90;;;;;;4956727;28;20017;-85
2022/04/26 19:26:22;;;;;;;;;;;7.20;99.90;;;;;;4953848;28;20257;-87
2022/04/26 19:29:09;;;;;;;;;;;7.10;99.90;;;;;;4963164;28;19957;-86
2022/04/26 19:31:58;;;;;;;;;;;7.10;99.90;;;;;;4933452;29;20062;-86
2022/04/26 19:35:00;;;;;;;;;;;7.00;99.90;;;;;;4949923;28;19997;-85
2022/04/26 19:37:48;;;;;;;;;;;7.00;99.90;;;;;;4957404;28;19926;-84
2022/04/26 19:40:43;;;;;;;;;;;7.00;99.90;;;;;;4952625;28;20065;-83
2022/04/26 19:43:32;;;;;;;;;;;7.00;99.90;;;;;;4963818;28;20548;-84
2022/04/26 19:46:19;;;;;;;;;;;7.00;99.90;;;;;;4957270;28;19937;-85
2022/04/26 19:49:07;;;;;;;;;;;7.00;99.90;;;;;;4962820;28;19997;-87
2022/04/26 19:55:24;;;;;;;;;;;7.00;99.90;;;;;;4953414;28;20194;-86
2022/04/26 19:58:12;;;;;;;;;;;7.00;99.90;;;;;;4962844;28;19952;-86
2022/04/26 20:01:02;;;;;;;;;;;7.00;99.90;;;;;;4966375;28;19922;-86
2022/04/26 20:03:50;;;;;;;;;;;7.00;99.90;;;;;;4957213;28;20384;-86
2022/04/26 20:06:38;;;;;;;;;;;7.00;99.90;;;;;;4948162;28;20069;-86
2022/04/26 20:09:25;;;;;;;;;;;7.00;99.90;;;;;;4963407;28;19930;-85
2022/04/26 20:12:31;;;;;;;;;;;7.00;99.90;;;;;;4961962;28;19933;-85
2022/04/26 20:15:21;;;;;;;;;;;7.00;99.90;;;;;;4957606;28;19933;-86
2022/04/26 20:18:09;;;;;;;;;;;7.00;99.90;;;;;;4956879;29;20032;-85
2022/04/26 20:20:58;;;;;;;;;;;7.00;99.90;;;;;;4957117;28;19930;-87
2022/04/26 20:23:46;;;;;;;;;;;7.10;99.90;;;;;;4958955;28;19923;-86
2022/04/26 20:29:48;;;;;;;;;;;7.10;99.90;;;;;;4959628;28;20316;-86
2022/04/26 20:32:38;;;;;;;;;;;7.10;99.90;;;;;;4956115;28;19922;-87
2022/04/26 20:35:35;;;;;;;;;;;7.10;99.90;;;;;;4958027;28;19973;-87
2022/04/26 20:38:49;;;;;;;;;;;7.10;99.90;;;;;;4954120;28;20324;-86
2022/04/26 20:41:37;;;;;;;;;;;7.10;99.90;;;;;;4956028;29;19922;-86
2022/04/26 20:44:36;;;;;;;;;;;7.00;99.90;;;;;;4957394;28;20324;-86
2022/04/26 20:50:52;;;;;;;;;;;7.00;99.90;;;;;;4964079;28;19930;-84
2022/04/26 20:53:40;;;;;;;;;;;7.00;99.90;;;;;;4955991;28;20025;-85
2022/04/26 20:56:28;;;;;;;;;;;7.00;99.90;;;;;;4955173;28;19930;-85
2022/04/26 20:59:15;;;;;;;;;;;7.00;99.90;;;;;;4955963;28;20359;-85
2022/04/26 21:02:06;;;;;;;;;;;7.00;99.90;;;;;;4967728;28;19926;-84
2022/04/26 21:04:53;;;;;;;;;;;7.00;99.90;;;;;;4955590;29;19933;-85
2022/04/26 21:07:45;;;;;;;;;;;7.00;99.90;;;;;;4966513;28;19926;-85
2022/04/26 21:10:47;;;;;;;;;;;7.00;99.90;;;;;;4969229;28;19960;-85
2022/04/26 21:13:35;;;;;;;;;;;7.00;99.90;;;;;;4963982;28;20317;-84
2022/04/26 21:16:23;;;;;;;;;;;7.00;99.90;;;;;;4960677;28;19929;-85
2022/04/26 21:19:13;;;;;;;;;;;7.00;99.90;;;;;;4956657;29;19922;-85
2022/04/26 21:22:00;;;;;;;;;;;7.00;99.90;;;;;;4958608;28;20305;-84
2022/04/26 21:25:22;;;;;;;;;;;7.10;99.90;;;;;;4965658;28;19981;-85
2022/04/26 21:28:13;;;;;;;;;;;7.10;99.90;;;;;;4963870;28;19929;-85
2022/04/26 21:31:16;;;;;;;;;;;7.10;99.90;;;;;;4953674;28;19938;-85
2022/04/26 21:34:04;;;;;;;;;;;7.00;99.90;;;;;;4956816;28;19927;-85
2022/04/26 21:36:57;;;;;;;;;;;7.00;99.90;;;;;;4960543;28;19930;-85
2022/04/26 21:39:44;;;;;;;;;;;6.90;99.90;;;;;;4958524;28;20009;-85
2022/04/26 21:42:34;;;;;;;;;;;7.00;99.90;;;;;;4962474;28;19930;-84
2022/04/26 21:45:21;;;;;;;;;;;6.90;99.90;;;;;;4934905;29;19922;-85
2022/04/26 21:48:08;;;;;;;;;;;6.80;99.90;;;;;;4958410;28;19930;-86
2022/04/26 21:54:02;;;;;;;;;;;6.80;99.90;;;;;;4950041;28;19922;-84